Time;durP1;ratioP1;P1;durP2;ratioP2;P2;SDS_P1;SDS_P2;PMS_P1;PMS_P2;Temp;Humidity;BMP_temperature;BMP_pressure;BME280_temperature;BME280_humidity;BME280_pressure;Samples;Min_cycle;Max_cycle;Signal;HPM_P1;HPM_P2
2023/11/03 00:01:09;;;;;;;5.38;0.90;;;;;;;4.52;100.00;94491.09;5064398;28;20558;-63
2023/11/03 00:03:36;;;;;;;3.40;0.80;;;;;;;4.35;100.00;94494.25;5065793;28;20040;-63
2023/11/03 00:06:03;;;;;;;3.05;0.70;;;;;;;4.28;100.00;94502.63;5065235;28;20082;-63
2023/11/03 00:08:30;;;;;;;4.80;0.70;;;;;;;4.19;100.00;94496.25;5064607;28;20110;-63
2023/11/03 00:11:00;;;;;;;6.35;0.95;;;;;;;3.99;100.00;94503.41;5064571;28;20040;-63
2023/11/03 00:13:26;;;;;;;3.25;0.73;;;;;;;3.83;100.00;94497.38;5064137;28;20037;-63
2023/11/03 00:15:53;;;;;;;1.73;0.50;;;;;;;3.85;100.00;94506.72;5064957;28;20076;-63
2023/11/03 00:18:20;;;;;;;4.25;0.80;;;;;;;3.54;100.00;94506.16;5065962;28;20036;-63
2023/11/03 00:20:49;;;;;;;2.70;0.80;;;;;;;3.45;100.00;94505.91;5059770;28;20111;-63
2023/11/03 00:23:16;;;;;;;1.42;0.60;;;;;;;3.24;100.00;94501.50;5065780;28;20129;-63
2023/11/03 00:25:42;;;;;;;2.40;0.75;;;;;;;3.23;100.00;94512.47;5063758;28;20048;-63
2023/11/03 00:28:09;;;;;;;4.05;1.00;;;;;;;3.17;100.00;94525.06;5062061;28;20044;-64
2023/11/03 00:30:35;;;;;;;3.70;0.70;;;;;;;3.08;100.00;94516.81;5068075;28;20040;-62
2023/11/03 00:33:02;;;;;;;3.60;0.60;;;;;;;3.13;100.00;94532.03;5045408;28;20323;-63
2023/11/03 00:35:29;;;;;;;4.57;0.70;;;;;;;2.84;100.00;94519.34;5064257;28;20051;-63
2023/11/03 00:37:56;;;;;;;3.47;0.80;;;;;;;2.81;100.00;94523.38;5044530;28;20086;-63
2023/11/03 00:40:23;;;;;;;2.90;0.80;;;;;;;2.69;100.00;94520.19;5063678;28;20535;-64
2023/11/03 00:42:49;;;;;;;2.92;0.63;;;;;;;2.67;100.00;94530.34;5063542;28;20708;-63
2023/11/03 00:45:17;;;;;;;5.00;0.93;;;;;;;2.61;100.00;94529.53;5064689;28;20102;-64
2023/11/03 00:47:43;;;;;;;3.45;0.55;;;;;;;2.55;100.00;94541.31;5064321;28;20094;-63
2023/11/03 00:50:12;;;;;;;1.55;0.70;;;;;;;2.54;100.00;94531.72;5063703;28;20545;-63
2023/11/03 00:52:40;;;;;;;1.83;0.80;;;;;;;2.38;100.00;94528.25;5061408;28;20040;-63
2023/11/03 00:55:07;;;;;;;5.85;0.90;;;;;;;2.14;100.00;94528.84;5062674;28;20064;-63
2023/11/03 00:57:33;;;;;;;4.63;0.70;;;;;;;2.25;100.00;94540.31;5063080;28;20123;-63
2023/11/03 01:00:00;;;;;;;3.63;1.10;;;;;;;2.21;100.00;94554.19;5062829;28;20052;-63
2023/11/03 01:02:27;;;;;;;4.53;0.70;;;;;;;2.13;100.00;94560.06;5065969;28;20036;-63
2023/11/03 01:04:55;;;;;;;3.75;0.98;;;;;;;1.93;100.00;94535.00;5063201;28;20119;-62
2023/11/03 01:07:22;;;;;;;7.20;1.15;;;;;;;2.04;100.00;94553.66;5064350;28;20033;-63
2023/11/03 01:09:49;;;;;;;1.88;0.90;;;;;;;2.19;100.00;94540.31;5062942;28;20036;-63
2023/11/03 01:12:16;;;;;;;2.35;0.82;;;;;;;2.16;100.00;94554.19;5063740;28;20041;-63
2023/11/03 01:14:43;;;;;;;7.35;1.00;;;;;;;1.93;100.00;94553.69;5067419;28;20040;-64
2023/11/03 01:17:10;;;;;;;3.95;1.15;;;;;;;1.95;100.00;94558.72;5064467;28;20041;-64
2023/11/03 01:19:36;;;;;;;7.10;1.08;;;;;;;2.15;100.00;94557.13;5067988;28;20036;-63
2023/11/03 01:22:04;;;;;;;3.25;1.00;;;;;;;2.17;100.00;94569.16;5044396;28;20040;-63
2023/11/03 01:24:31;;;;;;;3.05;1.10;;;;;;;2.03;100.00;94565.41;5064472;28;20047;-63
2023/11/03 01:26:59;;;;;;;6.13;1.40;;;;;;;2.00;100.00;94580.09;5062314;28;20045;-63
2023/11/03 01:29:26;;;;;;;3.13;0.90;;;;;;;1.83;100.00;94587.56;5041547;28;20033;-63
2023/11/03 01:31:52;;;;;;;4.68;0.98;;;;;;;1.82;100.00;94597.41;5062756;28;20212;-62
2023/11/03 01:34:19;;;;;;;4.07;1.20;;;;;;;1.97;100.00;94604.63;5064771;28;20036;-63
2023/11/03 01:36:45;;;;;;;3.85;0.90;;;;;;;1.94;100.00;94605.16;5061198;28;20048;-64
2023/11/03 01:39:12;;;;;;;2.50;0.80;;;;;;;1.98;100.00;94618.81;5065746;28;20447;-62
2023/11/03 01:41:39;;;;;;;3.05;0.95;;;;;;;1.99;100.00;94612.38;5063005;28;20041;-62
2023/11/03 01:44:09;;;;;;;6.70;1.35;;;;;;;2.10;100.00;94621.19;5064202;28;20044;-63
2023/11/03 01:46:37;;;;;;;5.30;0.88;;;;;;;2.00;100.00;94611.31;5060985;28;20044;-63
2023/11/03 01:49:08;;;;;;;3.60;0.95;;;;;;;1.84;100.00;94600.59;5061464;28;20463;-63
2023/11/03 01:51:36;;;;;;;4.38;0.80;;;;;;;1.83;100.00;94606.25;5063796;28;20044;-63
2023/11/03 01:54:04;;;;;;;2.15;0.75;;;;;;;1.91;100.00;94619.84;5044632;28;20043;-63
2023/11/03 01:56:34;;;;;;;1.88;0.73;;;;;;;2.12;100.00;94643.09;5067258;28;20058;-63
2023/11/03 01:59:04;;;;;;;2.85;0.90;;;;;;;2.23;100.00;94647.38;5061991;28;20032;-64
2023/11/03 02:01:32;;;;;;;6.25;1.17;;;;;;;2.36;100.00;94646.03;5058008;28;20044;-63
2023/11/03 02:03:59;;;;;;;6.97;1.40;;;;;;;2.48;100.00;94637.75;5043270;28;20036;-63
2023/11/03 02:06:26;;;;;;;7.68;1.42;;;;;;;2.80;100.00;94620.63;5063551;28;20049;-63
2023/11/03 02:08:53;;;;;;;9.75;1.50;;;;;;;3.04;100.00;94595.16;5049298;28;20048;-63
2023/11/03 02:11:25;;;;;;;4.38;1.05;;;;;;;3.18;100.00;94558.75;5063182;28;20032;-63
2023/11/03 02:13:52;;;;;;;2.90;0.68;;;;;;;3.27;100.00;94550.94;5054636;28;20040;-63
2023/11/03 02:16:19;;;;;;;2.20;0.68;;;;;;;3.28;100.00;94538.41;5061704;28;20074;-63
2023/11/03 02:18:45;;;;;;;3.58;0.82;;;;;;;3.32;100.00;94528.75;5069905;28;20039;-63
2023/11/03 02:21:13;;;;;;;2.15;0.85;;;;;;;3.06;100.00;94524.31;5063735;28;20038;-63
2023/11/03 02:23:40;;;;;;;4.57;1.08;;;;;;;2.96;100.00;94527.03;5066609;28;20123;-63
2023/11/03 02:26:07;;;;;;;4.82;1.00;;;;;;;2.81;100.00;94530.56;5061920;28;20044;-64
2023/11/03 02:28:33;;;;;;;3.22;1.00;;;;;;;2.67;100.00;94530.34;5061622;28;20084;-63
2023/11/03 02:31:00;;;;;;;2.75;0.80;;;;;;;2.64;100.00;94537.03;5061828;28;20064;-64
2023/11/03 02:33:27;;;;;;;5.30;1.05;;;;;;;2.39;100.00;94536.00;5065813;28;20051;-64
2023/11/03 02:35:53;;;;;;;2.90;0.93;;;;;;;2.45;100.00;94548.28;5062287;28;20048;-63
2023/11/03 02:38:20;;;;;;;5.80;0.93;;;;;;;2.45;100.00;94553.63;5043389;28;20036;-63
2023/11/03 02:40:47;;;;;;;3.20;0.93;;;;;;;2.31;100.00;94555.25;5060973;28;20040;-63
2023/11/03 02:43:14;;;;;;;4.13;0.80;;;;;;;2.12;100.00;94569.16;5063106;28;20043;-64
2023/11/03 02:45:41;;;;;;;6.20;1.27;;;;;;;1.97;100.00;94561.94;5061915;28;20040;-63
2023/11/03 02:48:08;;;;;;;4.18;1.17;;;;;;;1.86;100.00;94582.47;5063458;28;20646;-63
2023/11/03 02:50:35;;;;;;;4.15;0.93;;;;;;;1.90;100.00;94583.56;5057704;28;20526;-63
2023/11/03 02:53:02;;;;;;;5.50;0.90;;;;;;;1.92;100.00;94585.97;5060795;28;20048;-63
2023/11/03 02:55:29;;;;;;;7.78;1.25;;;;;;;1.91;100.00;94585.16;5044450;28;20144;-63
2023/11/03 02:57:56;;;;;;;3.78;0.70;;;;;;;1.81;100.00;94582.50;5061272;28;20045;-63
2023/11/03 03:00:22;;;;;;;9.50;0.80;;;;;;;1.83;100.00;94583.00;5064644;28;20043;-63
2023/11/03 03:02:49;;;;;;;3.85;1.15;;;;;;;1.83;100.00;94590.22;5064489;28;20111;-63
2023/11/03 03:05:16;;;;;;;2.60;1.13;;;;;;;1.84;100.00;94597.16;5048098;28;20744;-63
2023/11/03 03:07:45;;;;;;;5.03;0.90;;;;;;;1.85;100.00;94596.09;5066457;28;20048;-63
2023/11/03 03:10:12;;;;;;;3.85;0.90;;;;;;;1.93;100.00;94590.22;5067058;28;20035;-63
2023/11/03 03:12:41;;;;;;;2.85;0.65;;;;;;;1.79;100.00;94574.75;5065866;28;20052;-63
2023/11/03 03:15:10;;;;;;;2.50;1.00;;;;;;;1.79;100.00;94588.09;5079410;28;20036;-67
2023/11/03 03:17:37;;;;;;;8.10;0.95;;;;;;;1.79;100.00;94590.75;5070941;28;20044;-63
2023/11/03 03:20:05;;;;;;;5.65;1.63;;;;;;;1.73;100.00;94586.47;5071008;28;20064;-64
2023/11/03 03:22:32;;;;;;;2.65;0.90;;;;;;;1.71;100.00;94599.28;5068480;28;20115;-63
2023/11/03 03:24:59;;;;;;;2.63;1.00;;;;;;;1.78;100.00;94609.69;5063736;28;20049;-63
2023/11/03 03:27:25;;;;;;;4.18;1.48;;;;;;;1.79;100.00;94608.63;5064046;28;20492;-63
2023/11/03 03:29:52;;;;;;;3.00;1.02;;;;;;;1.87;100.00;94616.09;5045194;28;20707;-63
2023/11/03 03:32:18;;;;;;;5.75;1.20;;;;;;;1.92;100.00;94615.31;5064871;28;20132;-64
2023/11/03 03:34:45;;;;;;;4.65;1.20;;;;;;;1.98;100.00;94602.78;5062746;28;20044;-63
2023/11/03 03:37:15;;;;;;;6.93;1.48;;;;;;;1.99;100.00;94607.84;5068514;28;20044;-63
2023/11/03 03:39:41;;;;;;;3.15;1.20;;;;;;;2.17;100.00;94611.03;5064588;28;20035;-64
2023/11/03 03:42:08;;;;;;;7.18;1.40;;;;;;;2.38;100.00;94605.72;5064578;28;20036;-63
2023/11/03 03:44:39;;;;;;;1.60;0.80;;;;;;;2.59;100.00;94596.59;5066404;28;20043;-63
2023/11/03 03:47:07;;;;;;;5.80;1.23;;;;;;;2.80;100.00;94593.09;5071099;28;20047;-64
2023/11/03 03:49:34;;;;;;;4.43;1.10;;;;;;;2.89;100.00;94575.44;5066202;28;20501;-64
2023/11/03 03:52:01;;;;;;;4.90;1.05;;;;;;;2.93;100.00;94559.66;5063265;28;20427;-63
2023/11/03 03:54:28;;;;;;;7.07;1.67;;;;;;;2.90;100.00;94552.97;5046989;28;20045;-64
2023/11/03 03:56:55;;;;;;;3.95;1.00;;;;;;;3.04;100.00;94549.72;5063360;28;20067;-64
2023/11/03 03:59:21;;;;;;;3.83;1.20;;;;;;;3.21;100.00;94552.06;5066219;28;20488;-64
2023/11/03 04:01:48;;;;;;;4.57;1.27;;;;;;;3.22;100.00;94538.44;5058714;28;20041;-63
2023/11/03 04:04:14;;;;;;;5.50;1.23;;;;;;;3.27;100.00;94532.22;5065427;28;20055;-63
2023/11/03 04:06:44;;;;;;;5.32;1.30;;;;;;;3.31;100.00;94530.59;5045485;28;20148;-63
2023/11/03 04:09:11;;;;;;;5.32;1.20;;;;;;;3.41;100.00;94534.28;5063076;28;20041;-63
2023/11/03 04:11:38;;;;;;;4.90;1.23;;;;;;;3.48;100.00;94534.81;5063210;28;20060;-64
2023/11/03 04:14:05;;;;;;;6.13;1.50;;;;;;;3.50;100.00;94537.97;5066530;28;20094;-64
2023/11/03 04:16:35;;;;;;;4.72;1.50;;;;;;;3.58;100.00;94553.44;5064323;28;20155;-64
2023/11/03 04:19:02;;;;;;;3.05;1.13;;;;;;;3.59;100.00;94563.09;5059585;28;20040;-63
2023/11/03 04:21:29;;;;;;;4.32;1.05;;;;;;;3.70;100.00;94574.53;5065069;28;20048;-64
2023/11/03 04:23:57;;;;;;;7.32;1.58;;;;;;;3.77;100.00;94577.69;5063570;28;20044;-63
2023/11/03 04:26:25;;;;;;;3.35;1.35;;;;;;;3.83;100.00;94577.69;5063791;28;20726;-63
2023/11/03 04:28:51;;;;;;;4.78;1.00;;;;;;;3.92;100.00;94570.66;5067461;28;20036;-63
2023/11/03 04:31:18;;;;;;;2.65;1.10;;;;;;;4.01;100.00;94568.97;5063828;28;20039;-63
2023/11/03 04:33:45;;;;;;;4.75;1.05;;;;;;;4.03;100.00;94563.34;5060713;28;20056;-63
2023/11/03 04:36:12;;;;;;;3.13;1.20;;;;;;;4.08;100.00;94549.09;5063953;28;20055;-63
2023/11/03 04:38:39;;;;;;;6.50;1.27;;;;;;;4.13;100.00;94552.53;5061160;28;20048;-63
2023/11/03 04:41:06;;;;;;;9.98;1.35;;;;;;;4.15;100.00;94545.03;5063570;28;20079;-64
2023/11/03 04:43:35;;;;;;;3.55;0.90;;;;;;;4.19;100.00;94531.88;5065057;28;20167;-64
2023/11/03 04:46:03;;;;;;;4.18;1.10;;;;;;;4.03;100.00;94533.88;5062952;28;20040;-63
2023/11/03 04:48:30;;;;;;;7.30;1.17;;;;;;;3.97;100.00;94549.19;5058414;28;20047;-63
2023/11/03 04:50:57;;;;;;;5.43;0.98;;;;;;;3.94;100.00;94560.44;5044983;28;20463;-63
2023/11/03 04:53:24;;;;;;;2.83;0.98;;;;;;;4.03;100.00;94549.97;5059643;28;20041;-63
2023/11/03 04:55:51;;;;;;;4.15;1.05;;;;;;;4.08;100.00;94549.91;5061316;28;20045;-64
2023/11/03 04:58:19;;;;;;;2.70;0.80;;;;;;;4.03;100.00;94550.72;5066464;28;20040;-63
2023/11/03 05:00:47;;;;;;;6.82;1.30;;;;;;;4.02;100.00;94551.81;5060465;28;20108;-63
2023/11/03 05:03:15;;;;;;;4.00;1.23;;;;;;;4.08;100.00;94552.59;5062698;28;20524;-63
2023/11/03 05:05:42;;;;;;;1.70;0.75;;;;;;;4.22;100.00;94550.06;5046892;28;20067;-63
2023/11/03 05:08:09;;;;;;;5.68;0.98;;;;;;;4.32;100.00;94551.06;5061215;28;20044;-63
2023/11/03 05:10:37;;;;;;;4.00;1.33;;;;;;;4.49;100.00;94554.09;5066250;28;20097;-63
2023/11/03 05:13:04;;;;;;;8.00;1.30;;;;;;;4.58;100.00;94548.94;5062581;28;20212;-63
2023/11/03 05:15:31;;;;;;;4.15;0.82;;;;;;;4.73;100.00;94552.53;5063430;28;20462;-63
2023/11/03 05:17:58;;;;;;;4.03;1.20;;;;;;;4.72;100.00;94561.66;5061955;28;20049;-63
2023/11/03 05:20:25;;;;;;;5.95;1.13;;;;;;;4.70;100.00;94564.63;5061551;28;20040;-63
2023/11/03 05:22:52;;;;;;;2.55;0.82;;;;;;;4.78;100.00;94569.38;5061734;28;20041;-62
2023/11/03 05:25:20;;;;;;;4.50;1.25;;;;;;;4.66;100.00;94568.97;5061740;28;20044;-63
2023/11/03 05:27:47;;;;;;;5.10;1.30;;;;;;;4.56;100.00;94564.50;5066132;28;20044;-63
2023/11/03 05:30:14;;;;;;;3.03;1.00;;;;;;;4.49;100.00;94564.03;5063620;28;20044;-64
2023/11/03 05:32:40;;;;;;;4.90;0.80;;;;;;;4.47;100.00;94568.88;5061366;28;20598;-63
2023/11/03 05:35:08;;;;;;;4.95;1.05;;;;;;;4.35;100.00;94562.00;5062219;28;20051;-63
2023/11/03 05:37:35;;;;;;;5.47;1.10;;;;;;;4.33;100.00;94564.16;5068375;28;20036;-64
2023/11/03 05:40:04;;;;;;;4.60;1.08;;;;;;;4.34;100.00;94563.09;5064660;28;20132;-64
2023/11/03 05:42:31;;;;;;;5.43;1.00;;;;;;;4.34;100.00;94560.41;5060594;28;20416;-63
2023/11/03 05:44:58;;;;;;;5.75;1.20;;;;;;;4.28;100.00;94569.56;5058352;28;20058;-63
2023/11/03 05:47:24;;;;;;;4.45;1.20;;;;;;;4.29;100.00;94571.97;5050359;28;20047;-63
2023/11/03 05:49:51;;;;;;;5.80;1.60;;;;;;;4.28;100.00;94566.91;5062481;28;20049;-64
2023/11/03 05:52:18;;;;;;;5.35;1.20;;;;;;;4.38;100.00;94574.03;5045395;28;20593;-63
2023/11/03 05:54:44;;;;;;;4.88;1.30;;;;;;;4.47;100.00;94574.22;5062869;28;20036;-64
2023/11/03 05:57:11;;;;;;;5.30;1.10;;;;;;;4.52;100.00;94572.31;5060142;28;20051;-63
2023/11/03 05:59:38;;;;;;;3.05;1.00;;;;;;;4.61;100.00;94579.72;5065389;28;20036;-64
2023/11/03 06:02:05;;;;;;;5.43;1.30;;;;;;;4.58;100.00;94581.09;5060120;28;20069;-64
2023/11/03 06:04:31;;;;;;;2.55;1.05;;;;;;;4.44;100.00;94589.00;5064706;28;20039;-63
2023/11/03 06:06:58;;;;;;;7.85;1.45;;;;;;;4.44;100.00;94597.03;5059714;28;20080;-63
2023/11/03 06:09:25;;;;;;;3.45;1.33;;;;;;;4.47;100.00;94609.88;5061585;28;20047;-64
2023/11/03 06:11:51;;;;;;;4.40;1.45;;;;;;;4.47;100.00;94606.38;5063036;28;20044;-64
2023/11/03 06:14:18;;;;;;;3.95;1.42;;;;;;;4.40;100.00;94620.91;5059873;28;20051;-64
2023/11/03 06:16:44;;;;;;;4.50;1.45;;;;;;;4.48;100.00;94621.38;5062210;28;20119;-64
2023/11/03 06:19:11;;;;;;;3.60;1.48;;;;;;;4.49;100.00;94631.03;5062842;28;20043;-64
2023/11/03 06:21:38;;;;;;;3.85;1.30;;;;;;;4.60;100.00;94631.75;5060145;28;20033;-64
2023/11/03 06:24:05;;;;;;;4.97;1.45;;;;;;;4.54;100.00;94636.34;5062746;28;20040;-64
2023/11/03 06:26:32;;;;;;;3.70;1.42;;;;;;;4.63;100.00;94636.50;5061669;28;20463;-64
2023/11/03 06:28:58;;;;;;;5.55;1.20;;;;;;;4.61;100.00;94636.00;5059370;28;20555;-64
2023/11/03 06:31:25;;;;;;;4.25;1.10;;;;;;;4.58;100.00;94640.06;5062840;28;20040;-64
2023/11/03 06:33:52;;;;;;;7.80;1.40;;;;;;;4.52;100.00;94643.84;5057418;28;20072;-64
2023/11/03 06:36:18;;;;;;;3.85;1.00;;;;;;;4.49;100.00;94645.22;5060773;28;20068;-64
2023/11/03 06:38:45;;;;;;;4.43;1.25;;;;;;;4.52;100.00;94652.69;5062468;28;20101;-63
2023/11/03 06:41:12;;;;;;;5.35;1.33;;;;;;;4.56;100.00;94655.59;5061038;28;20032;-65
2023/11/03 06:43:40;;;;;;;2.40;0.90;;;;;;;4.62;100.00;94661.72;5059229;28;20047;-64
2023/11/03 06:46:10;;;;;;;2.72;0.90;;;;;;;4.85;100.00;94654.00;5058221;28;20041;-64
2023/11/03 06:48:37;;;;;;;4.07;1.02;;;;;;;4.82;100.00;94653.50;5060489;28;20040;-64
2023/11/03 06:51:10;;;;;;;1.88;0.73;;;;;;;4.85;100.00;94652.16;5040088;28;20743;-64
2023/11/03 06:53:37;;;;;;;6.53;0.80;;;;;;;4.89;100.00;94647.00;5060771;28;20052;-63
2023/11/03 06:56:05;;;;;;;10.27;1.35;;;;;;;4.94;100.00;94668.44;5036989;28;20657;-63
2023/11/03 06:58:35;;;;;;;2.63;0.70;;;;;;;4.97;100.00;94662.47;5058018;28;20033;-63
2023/11/03 07:01:01;;;;;;;3.70;1.10;;;;;;;5.06;100.00;94662.69;5024910;28;20044;-64
2023/11/03 07:03:28;;;;;;;4.88;1.00;;;;;;;5.13;100.00;94667.72;5058734;28;20063;-63
2023/11/03 07:05:55;;;;;;;3.90;1.20;;;;;;;5.14;100.00;94669.31;5058813;28;20041;-63
2023/11/03 07:08:21;;;;;;;3.28;1.30;;;;;;;5.12;100.00;94674.16;5060197;28;20059;-63
2023/11/03 07:10:48;;;;;;;5.30;1.30;;;;;;;5.16;100.00;94683.25;5058237;28;20052;-63
2023/11/03 07:13:14;;;;;;;5.97;1.75;;;;;;;5.15;100.00;94684.31;5059188;28;20040;-63
2023/11/03 07:15:43;;;;;;;3.55;1.15;;;;;;;5.17;100.00;94685.63;5057363;28;20726;-63
2023/11/03 07:18:09;;;;;;;3.38;1.20;;;;;;;5.16;100.00;94688.59;5059133;28;20032;-63
2023/11/03 07:20:36;;;;;;;2.78;1.10;;;;;;;5.21;100.00;94692.00;5046411;28;20060;-63
2023/11/03 07:23:05;;;;;;;5.03;1.42;;;;;;;5.18;100.00;94706.00;5057723;28;20041;-63
2023/11/03 07:25:32;;;;;;;3.72;1.40;;;;;;;5.20;100.00;94713.78;5060034;28;20128;-63
2023/11/03 07:27:59;;;;;;;4.03;1.42;;;;;;;5.20;100.00;94708.41;5039128;28;20049;-63
2023/11/03 07:30:25;;;;;;;3.88;1.42;;;;;;;5.23;100.00;94713.19;5059071;28;20037;-63
2023/11/03 07:32:52;;;;;;;4.15;1.30;;;;;;;5.24;100.00;94704.09;5060763;28;20037;-63
2023/11/03 07:35:20;;;;;;;3.47;1.27;;;;;;;5.14;100.00;94709.53;5042646;28;20052;-63
2023/11/03 07:37:46;;;;;;;4.57;1.40;;;;;;;5.17;100.00;94709.75;5056557;28;20125;-64
2023/11/03 07:40:14;;;;;;;7.88;1.45;;;;;;;5.23;100.00;94715.09;5067376;28;20119;-63
2023/11/03 07:42:41;;;;;;;7.75;2.13;;;;;;;5.17;100.00;94711.66;5060542;28;20040;-63
2023/11/03 07:45:08;;;;;;;3.97;1.55;;;;;;;5.16;100.00;94702.00;5060961;28;20657;-63
2023/11/03 07:47:35;;;;;;;4.53;1.33;;;;;;;5.25;100.00;94716.41;5062396;28;20620;-63
2023/11/03 07:50:02;;;;;;;5.68;1.70;;;;;;;5.28;100.00;94709.66;5064596;28;20044;-63
2023/11/03 07:52:28;;;;;;;7.43;1.90;;;;;;;5.27;100.00;94716.13;5064576;28;20037;-63
2023/11/03 07:54:55;;;;;;;5.03;2.00;;;;;;;5.37;100.00;94718.69;5067135;28;20047;-62
2023/11/03 07:57:21;;;;;;;5.03;1.63;;;;;;;5.44;100.00;94716.47;5067238;28;20044;-64
2023/11/03 07:59:48;;;;;;;5.53;2.30;;;;;;;5.53;100.00;94713.19;5061254;28;20049;-63
2023/11/03 08:02:15;;;;;;;3.80;1.77;;;;;;;5.59;100.00;94715.53;5065082;28;20048;-63
2023/11/03 08:04:42;;;;;;;5.93;1.88;;;;;;;5.65;100.00;94710.91;5064866;28;20040;-63
2023/11/03 08:07:09;;;;;;;5.68;1.35;;;;;;;5.69;100.00;94711.94;5063894;28;20561;-63
2023/11/03 08:09:36;;;;;;;4.28;1.50;;;;;;;5.83;100.00;94711.22;5065662;28;20045;-63
2023/11/03 08:12:03;;;;;;;6.75;1.55;;;;;;;5.88;100.00;94715.72;5059822;28;20056;-64
2023/11/03 08:14:30;;;;;;;6.65;1.10;;;;;;;5.85;100.00;94711.72;5065250;28;20503;-63
2023/11/03 08:16:56;;;;;;;3.70;1.10;;;;;;;6.01;100.00;94716.91;5061022;28;20522;-63
2023/11/03 08:19:24;;;;;;;2.35;1.10;;;;;;;6.05;100.00;94716.06;5062930;28;20044;-63
2023/11/03 08:21:50;;;;;;;3.88;0.95;;;;;;;6.09;100.00;94719.00;5060825;28;20123;-63
2023/11/03 08:24:17;;;;;;;2.88;0.70;;;;;;;5.95;100.00;94729.59;5061014;28;20056;-63
2023/11/03 08:26:43;;;;;;;2.25;0.73;;;;;;;5.97;100.00;94728.22;5062306;28;20044;-63
2023/11/03 08:29:10;;;;;;;3.42;1.00;;;;;;;5.98;100.00;94723.66;5045493;28;20051;-63
2023/11/03 08:31:42;;;;;;;4.97;1.03;;;;;;;6.03;100.00;94723.63;5062690;28;20055;-62
2023/11/03 08:34:12;;;;;;;4.40;0.90;;;;;;;6.08;100.00;94720.88;5041641;28;20296;-63
2023/11/03 08:36:39;;;;;;;2.13;0.82;;;;;;;6.23;100.00;94724.47;5061697;28;20047;-62
2023/11/03 08:39:08;;;;;;;3.65;1.00;;;;;;;6.40;100.00;94723.13;5064297;28;20135;-62
2023/11/03 08:41:54;;;;;;;2.00;0.70;;;;;;;6.31;100.00;94726.50;5061645;28;20037;-63
2023/11/03 08:44:22;;;;;;;4.00;1.27;;;;;;;6.32;100.00;94729.97;5060943;28;20051;-63
2023/11/03 08:46:49;;;;;;;3.95;1.00;;;;;;;6.39;100.00;94733.09;5065198;28;20044;-63
2023/11/03 08:49:16;;;;;;;2.97;1.10;;;;;;;6.46;100.00;94744.31;5061165;28;20048;-63
2023/11/03 08:51:42;;;;;;;2.55;0.90;;;;;;;6.38;100.00;94753.78;5062167;28;20078;-62
2023/11/03 08:54:11;;;;;;;6.90;1.40;;;;;;;6.38;100.00;94748.41;5061568;28;20044;-63
2023/11/03 08:56:39;;;;;;;2.33;0.90;;;;;;;6.48;100.00;94743.97;5067943;28;20052;-62
2023/11/03 08:59:05;;;;;;;2.33;0.70;;;;;;;6.42;100.00;94747.84;5059948;28;20571;-62
2023/11/03 09:01:33;;;;;;;2.20;0.77;;;;;;;6.49;100.00;94751.75;5061383;28;20431;-65
2023/11/03 09:04:01;;;;;;;2.83;0.73;;;;;;;6.44;100.00;94754.53;5060358;28;20033;-62
2023/11/03 09:06:28;;;;;;;3.95;1.02;;;;;;;6.40;100.00;94753.50;5062889;28;20734;-70
2023/11/03 09:08:55;;;;;;;2.17;0.65;;;;;;;6.60;100.00;94762.38;5063174;28;20041;-62
2023/11/03 09:11:22;;;;;;;3.40;1.10;;;;;;;6.59;100.00;94766.97;5061955;28;20119;-62
2023/11/03 09:13:52;;;;;;;3.42;0.75;;;;;;;6.55;100.00;94768.63;5059643;28;20040;-62
2023/11/03 09:16:20;;;;;;;1.80;0.50;;;;;;;6.60;100.00;94768.53;5044132;28;20062;-62
2023/11/03 09:18:48;;;;;;;2.17;0.60;;;;;;;6.73;100.00;94774.28;5062004;28;20115;-62
2023/11/03 09:21:15;;;;;;;2.30;0.60;;;;;;;6.71;100.00;94782.66;5061204;28;20846;-63
2023/11/03 09:23:43;;;;;;;3.13;0.50;;;;;;;6.75;100.00;94782.88;5060814;28;20497;-62
2023/11/03 09:26:09;;;;;;;1.95;0.73;;;;;;;6.88;100.00;94774.06;5057807;28;20044;-63
2023/11/03 09:28:38;;;;;;;1.20;0.50;;;;;;;6.87;100.00;94780.56;5043795;28;20037;-62
2023/11/03 09:31:05;;;;;;;1.65;0.60;;;;;;;6.85;100.00;94773.84;5060410;28;20036;-63
2023/11/03 09:33:32;;;;;;;2.28;0.85;;;;;;;6.84;100.00;94786.50;5053651;28;20040;-62
2023/11/03 09:36:01;;;;;;;0.77;0.38;;;;;;;6.95;100.00;94770.19;5041764;28;20135;-63
2023/11/03 09:38:27;;;;;;;2.33;0.60;;;;;;;6.92;100.00;94771.59;5056822;28;20099;-62
2023/11/03 09:40:54;;;;;;;2.45;0.35;;;;;;;7.02;100.00;94781.41;5060033;28;20071;-62
2023/11/03 09:43:22;;;;;;;2.22;0.40;;;;;;;7.12;100.00;94761.59;5059651;28;20114;-63
2023/11/03 09:45:49;;;;;;;3.83;0.82;;;;;;;7.07;100.00;94767.84;5058390;28;20052;-63
2023/11/03 09:48:20;;;;;;;1.25;0.30;;;;;;;6.85;100.00;94774.66;5059206;28;20048;-62
2023/11/03 09:50:47;;;;;;;1.27;0.43;;;;;;;7.07;100.00;94778.63;5058717;28;20055;-62
2023/11/03 09:53:18;;;;;;;1.25;0.30;;;;;;;7.01;100.00;94767.13;5061236;28;20503;-62
2023/11/03 09:55:45;;;;;;;1.20;0.50;;;;;;;7.01;100.00;94766.34;5039587;28;20419;-62
2023/11/03 09:58:12;;;;;;;1.50;0.50;;;;;;;7.14;100.00;94762.91;5060592;28;20586;-63
2023/11/03 10:00:40;;;;;;;2.35;0.43;;;;;;;7.22;100.00;94760.63;5060307;28;20499;-62
2023/11/03 10:03:07;;;;;;;1.77;0.38;;;;;;;7.35;100.00;94767.13;5059467;28;20045;-62
2023/11/03 10:05:36;;;;;;;0.40;0.30;;;;;;;7.15;100.00;94753.72;5059299;28;20040;-62
2023/11/03 10:08:05;;;;;;;1.20;0.40;;;;;;;7.22;100.00;94757.94;5059002;28;20044;-61
2023/11/03 10:10:34;;;;;;;1.25;0.30;;;;;;;7.10;100.00;94747.63;5059298;28;20053;-61
2023/11/03 10:13:04;;;;;;;0.40;0.20;;;;;;;7.24;100.00;94753.88;5060011;28;20055;-61
2023/11/03 10:15:32;;;;;;;0.82;0.40;;;;;;;7.28;100.00;94751.38;5062496;28;20105;-62
2023/11/03 10:17:58;;;;;;;1.15;0.40;;;;;;;7.49;100.00;94754.50;5061784;28;20049;-61
2023/11/03 10:20:25;;;;;;;2.70;0.38;;;;;;;7.60;100.00;94749.75;5062291;28;20040;-62
2023/11/03 10:22:52;;;;;;;1.27;0.47;;;;;;;7.68;100.00;94751.72;5060157;28;20073;-61
2023/11/03 10:25:19;;;;;;;0.55;0.20;;;;;;;7.68;100.00;94751.72;5059327;28;20728;-60
2023/11/03 10:27:47;;;;;;;1.10;0.40;;;;;;;7.59;100.00;94750.03;5059220;28;20119;-61
2023/11/03 10:30:19;;;;;;;0.63;0.30;;;;;;;7.54;100.00;94746.34;5058130;28;20056;-67
2023/11/03 10:32:46;;;;;;;1.67;0.47;;;;;;;7.72;100.00;94743.88;5059329;28;20567;-62
2023/11/03 10:35:13;;;;;;;1.27;0.30;;;;;;;7.52;100.00;94743.13;5059761;28;20036;-62
2023/11/03 10:37:41;;;;;;;1.58;0.40;;;;;;;7.50;100.00;94741.84;5061648;28;20804;-61
2023/11/03 10:40:15;;;;;;;1.83;0.38;;;;;;;7.53;100.00;94744.72;5059371;28;20040;-62
2023/11/03 10:42:51;;;;;;;1.00;0.35;;;;;;;7.52;100.00;94726.97;5062401;28;20380;-60
2023/11/03 10:45:20;;;;;;;4.28;0.40;;;;;;;7.61;100.00;94726.28;5059945;28;20041;-61
2023/11/03 10:48:07;;;;;;;1.13;0.30;;;;;;;7.64;100.00;94725.69;5042327;28;20082;-62
2023/11/03 10:50:39;;;;;;;0.98;0.43;;;;;;;7.56;100.00;94740.66;5056329;28;20501;-62
2023/11/03 10:53:19;;;;;;;2.00;0.30;;;;;;;7.58;100.00;94722.31;5059993;28;20044;-61
2023/11/03 10:55:59;;;;;;;0.57;0.30;;;;;;;7.70;99.55;94735.28;5059769;28;20040;-62
2023/11/03 10:58:42;;;;;;;0.70;0.30;;;;;;;7.75;100.00;94727.13;5057756;28;20106;-62
2023/11/03 11:01:17;;;;;;;0.80;0.25;;;;;;;7.86;100.00;94721.50;5047088;28;20047;-62
2023/11/03 11:04:00;;;;;;;1.08;0.30;;;;;;;7.76;100.00;94712.53;5060174;28;20040;-61
2023/11/03 11:06:38;;;;;;;0.35;0.20;;;;;;;7.97;99.34;94711.31;5059927;28;20504;-62
2023/11/03 11:09:15;;;;;;;0.68;0.20;;;;;;;7.99;98.74;94714.53;5060044;28;20052;-62
2023/11/03 11:11:44;;;;;;;2.60;0.55;;;;;;;8.04;98.34;94706.34;5060992;28;20045;-61
2023/11/03 11:14:22;;;;;;;0.30;0.20;;;;;;;7.98;97.07;94718.31;5062426;28;20094;-63
2023/11/03 11:16:58;;;;;;;2.15;0.43;;;;;;;7.85;96.99;94717.22;5057307;28;20044;-61
2023/11/03 11:19:38;;;;;;;0.60;0.30;;;;;;;7.88;97.05;94720.13;5053680;28;20049;-61
2023/11/03 11:22:09;;;;;;;0.85;0.20;;;;;;;7.75;96.76;94718.22;5058631;28;20045;-62
2023/11/03 11:24:38;;;;;;;5.07;0.65;;;;;;;7.78;98.53;94723.03;5064618;28;20115;-62
2023/11/03 11:27:31;;;;;;;0.70;0.40;;;;;;;7.78;98.60;94726.50;5058247;28;20040;-61
2023/11/03 11:30:12;;;;;;;2.58;0.45;;;;;;;7.92;99.62;94721.09;5058889;28;20067;-61
2023/11/03 11:32:38;;;;;;;2.97;0.75;;;;;;;7.87;98.57;94732.00;5047339;28;20040;-61
2023/11/03 11:35:08;;;;;;;1.52;0.30;;;;;;;7.86;98.33;94722.31;5065402;28;20577;-62
2023/11/03 11:37:36;;;;;;;0.82;0.30;;;;;;;7.92;98.49;94725.69;5066967;28;20086;-61